sensor_id;sensor_type;location;lat;lon;timestamp;P1;durP1;ratioP1;P2;durP2;ratioP2
8694;SDS011;65580;49.446;6.854;2024-02-26T00:03:54;0.70;;;0.40;;
8694;SDS011;65580;49.446;6.854;2024-02-26T00:08:01;3.45;;;0.63;;
8694;SDS011;65580;49.446;6.854;2024-02-26T00:12:26;0.52;;;0.30;;
8694;SDS011;65580;49.446;6.854;2024-02-26T00:16:29;2.00;;;0.57;;
8694;SDS011;65580;49.446;6.854;2024-02-26T00:20:32;0.60;;;0.40;;
8694;SDS011;65580;49.446;6.854;2024-02-26T00:24:55;0.30;;;0.30;;
8694;SDS011;65580;49.446;6.854;2024-02-26T00:29:12;0.30;;;0.30;;
8694;SDS011;65580;49.446;6.854;2024-02-26T00:37:44;0.30;;;0.30;;
8694;SDS011;65580;49.446;6.854;2024-02-26T00:41:48;2.10;;;0.40;;
8694;SDS011;65580;49.446;6.854;2024-02-26T00:50:15;0.32;;;0.32;;
8694;SDS011;65580;49.446;6.854;2024-02-26T00:54:37;1.70;;;0.60;;
8694;SDS011;65580;49.446;6.854;2024-02-26T00:58:41;2.53;;;0.77;;
8694;SDS011;65580;49.446;6.854;2024-02-26T01:07:43;0.55;;;0.55;;
8694;SDS011;65580;49.446;6.854;2024-02-26T01:11:46;1.58;;;0.85;;
8694;SDS011;65580;49.446;6.854;2024-02-26T01:15:50;1.33;;;0.90;;
8694;SDS011;65580;49.446;6.854;2024-02-26T01:19:55;2.10;;;0.90;;
8694;SDS011;65580;49.446;6.854;2024-02-26T01:23:58;1.98;;;0.70;;
8694;SDS011;65580;49.446;6.854;2024-02-26T01:28:02;1.80;;;0.55;;
8694;SDS011;65580;49.446;6.854;2024-02-26T01:32:13;3.90;;;0.90;;
8694;SDS011;65580;49.446;6.854;2024-02-26T01:36:18;1.63;;;0.52;;
8694;SDS011;65580;49.446;6.854;2024-02-26T01:40:21;2.15;;;0.70;;
8694;SDS011;65580;49.446;6.854;2024-02-26T01:44:25;2.53;;;0.70;;
8694;SDS011;65580;49.446;6.854;2024-02-26T01:48:29;0.98;;;0.68;;
8694;SDS011;65580;49.446;6.854;2024-02-26T01:52:34;2.88;;;0.90;;
8694;SDS011;65580;49.446;6.854;2024-02-26T01:56:38;2.03;;;1.10;;
8694;SDS011;65580;49.446;6.854;2024-02-26T02:00:53;1.63;;;0.90;;
8694;SDS011;65580;49.446;6.854;2024-02-26T02:04:57;3.00;;;0.90;;
8694;SDS011;65580;49.446;6.854;2024-02-26T02:09:01;1.23;;;0.90;;
8694;SDS011;65580;49.446;6.854;2024-02-26T02:13:08;1.83;;;0.90;;
8694;SDS011;65580;49.446;6.854;2024-02-26T02:17:11;1.25;;;0.43;;
8694;SDS011;65580;49.446;6.854;2024-02-26T02:21:16;1.20;;;0.80;;
8694;SDS011;65580;49.446;6.854;2024-02-26T02:25:26;2.78;;;0.80;;
8694;SDS011;65580;49.446;6.854;2024-02-26T02:42:02;0.50;;;0.50;;
8694;SDS011;65580;49.446;6.854;2024-02-26T02:46:06;1.20;;;0.95;;
8694;SDS011;65580;49.446;6.854;2024-02-26T02:50:09;1.38;;;1.05;;
8694;SDS011;65580;49.446;6.854;2024-02-26T02:54:13;1.83;;;0.75;;
8694;SDS011;65580;49.446;6.854;2024-02-26T02:58:16;1.33;;;0.90;;
8694;SDS011;65580;49.446;6.854;2024-02-26T03:02:19;1.15;;;0.80;;
8694;SDS011;65580;49.446;6.854;2024-02-26T03:06:24;1.20;;;1.00;;
8694;SDS011;65580;49.446;6.854;2024-02-26T03:10:31;0.82;;;0.82;;
8694;SDS011;65580;49.446;6.854;2024-02-26T03:14:34;1.00;;;0.80;;
8694;SDS011;65580;49.446;6.854;2024-02-26T03:18:38;0.95;;;0.68;;
8694;SDS011;65580;49.446;6.854;2024-02-26T03:22:41;1.98;;;0.85;;
8694;SDS011;65580;49.446;6.854;2024-02-26T03:26:46;1.70;;;1.00;;
8694;SDS011;65580;49.446;6.854;2024-02-26T03:30:49;2.22;;;1.02;;
8694;SDS011;65580;49.446;6.854;2024-02-26T03:34:52;1.98;;;1.15;;
8694;SDS011;65580;49.446;6.854;2024-02-26T03:38:57;2.00;;;1.17;;
8694;SDS011;65580;49.446;6.854;2024-02-26T03:47:09;3.25;;;1.17;;
8694;SDS011;65580;49.446;6.854;2024-02-26T03:51:12;1.45;;;1.10;;
8694;SDS011;65580;49.446;6.854;2024-02-26T03:55:15;2.13;;;1.20;;
8694;SDS011;65580;49.446;6.854;2024-02-26T03:59:26;2.10;;;1.40;;
8694;SDS011;65580;49.446;6.854;2024-02-26T04:03:29;1.60;;;1.08;;
8694;SDS011;65580;49.446;6.854;2024-02-26T04:07:32;1.63;;;1.10;;
8694;SDS011;65580;49.446;6.854;2024-02-26T04:11:40;1.80;;;1.23;;
8694;SDS011;65580;49.446;6.854;2024-02-26T04:15:46;1.95;;;1.20;;
8694;SDS011;65580;49.446;6.854;2024-02-26T04:19:49;1.13;;;1.02;;
8694;SDS011;65580;49.446;6.854;2024-02-26T04:23:52;1.95;;;1.50;;
8694;SDS011;65580;49.446;6.854;2024-02-26T04:27:57;1.60;;;1.35;;
8694;SDS011;65580;49.446;6.854;2024-02-26T04:36:12;1.55;;;1.10;;
8694;SDS011;65580;49.446;6.854;2024-02-26T04:40:15;1.55;;;1.10;;
8694;SDS011;65580;49.446;6.854;2024-02-26T04:44:18;3.05;;;1.25;;
8694;SDS011;65580;49.446;6.854;2024-02-26T04:48:23;1.50;;;1.20;;
8694;SDS011;65580;49.446;6.854;2024-02-26T04:52:26;2.00;;;1.27;;
8694;SDS011;65580;49.446;6.854;2024-02-26T04:56:35;2.40;;;1.50;;
8694;SDS011;65580;49.446;6.854;2024-02-26T05:00:38;2.47;;;1.35;;
8694;SDS011;65580;49.446;6.854;2024-02-26T05:04:43;2.97;;;1.25;;
8694;SDS011;65580;49.446;6.854;2024-02-26T05:08:46;3.08;;;1.60;;
8694;SDS011;65580;49.446;6.854;2024-02-26T05:12:49;3.45;;;1.73;;
8694;SDS011;65580;49.446;6.854;2024-02-26T05:16:52;3.28;;;1.58;;
8694;SDS011;65580;49.446;6.854;2024-02-26T05:20:56;2.20;;;1.35;;
8694;SDS011;65580;49.446;6.854;2024-02-26T05:24:59;2.78;;;1.45;;
8694;SDS011;65580;49.446;6.854;2024-02-26T05:29:02;2.60;;;1.40;;
8694;SDS011;65580;49.446;6.854;2024-02-26T05:33:05;1.92;;;1.40;;
8694;SDS011;65580;49.446;6.854;2024-02-26T05:37:10;4.15;;;1.75;;
8694;SDS011;65580;49.446;6.854;2024-02-26T05:41:13;2.60;;;1.70;;
8694;SDS011;65580;49.446;6.854;2024-02-26T05:45:19;2.42;;;1.67;;
8694;SDS011;65580;49.446;6.854;2024-02-26T05:49:23;2.88;;;1.45;;
8694;SDS011;65580;49.446;6.854;2024-02-26T05:53:27;4.00;;;1.85;;
8694;SDS011;65580;49.446;6.854;2024-02-26T05:57:31;3.78;;;1.80;;
8694;SDS011;65580;49.446;6.854;2024-02-26T06:01:41;3.63;;;1.63;;
8694;SDS011;65580;49.446;6.854;2024-02-26T06:05:44;1.90;;;1.40;;
8694;SDS011;65580;49.446;6.854;2024-02-26T06:09:50;4.38;;;2.00;;
8694;SDS011;65580;49.446;6.854;2024-02-26T06:13:53;2.00;;;1.23;;
8694;SDS011;65580;49.446;6.854;2024-02-26T06:17:56;2.20;;;1.38;;
8694;SDS011;65580;49.446;6.854;2024-02-26T06:21:59;4.57;;;2.92;;
8694;SDS011;65580;49.446;6.854;2024-02-26T06:26:12;2.47;;;1.60;;
8694;SDS011;65580;49.446;6.854;2024-02-26T06:30:15;3.10;;;1.58;;
8694;SDS011;65580;49.446;6.854;2024-02-26T06:34:26;4.78;;;1.60;;
8694;SDS011;65580;49.446;6.854;2024-02-26T06:38:29;3.97;;;1.95;;
8694;SDS011;65580;49.446;6.854;2024-02-26T06:42:33;3.33;;;1.65;;
8694;SDS011;65580;49.446;6.854;2024-02-26T06:50:59;4.70;;;2.10;;
8694;SDS011;65580;49.446;6.854;2024-02-26T06:55:18;2.22;;;1.67;;
8694;SDS011;65580;49.446;6.854;2024-02-26T06:59:23;3.47;;;1.90;;
8694;SDS011;65580;49.446;6.854;2024-02-26T07:03:26;2.42;;;1.42;;
8694;SDS011;65580;49.446;6.854;2024-02-26T07:07:43;3.60;;;2.00;;
8694;SDS011;65580;49.446;6.854;2024-02-26T07:16:10;3.58;;;1.90;;
8694;SDS011;65580;49.446;6.854;2024-02-26T07:24:35;4.53;;;2.60;;
8694;SDS011;65580;49.446;6.854;2024-02-26T07:33:10;4.88;;;3.15;;
8694;SDS011;65580;49.446;6.854;2024-02-26T07:37:16;4.38;;;2.70;;
8694;SDS011;65580;49.446;6.854;2024-02-26T07:50:28;7.40;;;3.70;;
8694;SDS011;65580;49.446;6.854;2024-02-26T07:54:39;7.68;;;3.72;;
8694;SDS011;65580;49.446;6.854;2024-02-26T07:58:42;6.38;;;3.17;;
8694;SDS011;65580;49.446;6.854;2024-02-26T08:11:26;5.63;;;2.60;;
8694;SDS011;65580;49.446;6.854;2024-02-26T08:15:30;4.00;;;2.60;;
8694;SDS011;65580;49.446;6.854;2024-02-26T08:19:33;3.78;;;2.33;;
8694;SDS011;65580;49.446;6.854;2024-02-26T08:28:16;3.85;;;2.20;;
8694;SDS011;65580;49.446;6.854;2024-02-26T08:32:19;2.90;;;2.00;;
8694;SDS011;65580;49.446;6.854;2024-02-26T08:40:55;3.47;;;2.03;;
8694;SDS011;65580;49.446;6.854;2024-02-26T08:44:59;2.92;;;1.95;;
8694;SDS011;65580;49.446;6.854;2024-02-26T08:49:13;2.72;;;1.75;;
8694;SDS011;65580;49.446;6.854;2024-02-26T08:53:17;3.08;;;1.95;;
8694;SDS011;65580;49.446;6.854;2024-02-26T08:57:33;3.83;;;1.80;;
8694;SDS011;65580;49.446;6.854;2024-02-26T09:01:36;2.10;;;1.60;;
8694;SDS011;65580;49.446;6.854;2024-02-26T09:05:40;1.98;;;1.52;;
8694;SDS011;65580;49.446;6.854;2024-02-26T09:09:52;2.22;;;1.67;;
8694;SDS011;65580;49.446;6.854;2024-02-26T09:13:58;4.03;;;2.03;;
8694;SDS011;65580;49.446;6.854;2024-02-26T09:18:00;4.10;;;2.15;;
8694;SDS011;65580;49.446;6.854;2024-02-26T09:22:12;4.45;;;2.10;;
8694;SDS011;65580;49.446;6.854;2024-02-26T09:26:19;2.85;;;1.60;;
8694;SDS011;65580;49.446;6.854;2024-02-26T09:30:23;4.20;;;1.88;;
8694;SDS011;65580;49.446;6.854;2024-02-26T09:34:26;3.25;;;1.60;;
8694;SDS011;65580;49.446;6.854;2024-02-26T09:38:36;2.90;;;1.80;;
8694;SDS011;65580;49.446;6.854;2024-02-26T09:42:58;4.82;;;1.70;;
8694;SDS011;65580;49.446;6.854;2024-02-26T09:47:04;2.97;;;1.83;;
8694;SDS011;65580;49.446;6.854;2024-02-26T09:51:08;1.90;;;1.40;;
8694;SDS011;65580;49.446;6.854;2024-02-26T09:55:13;2.17;;;1.60;;
8694;SDS011;65580;49.446;6.854;2024-02-26T09:59:17;2.30;;;1.27;;
8694;SDS011;65580;49.446;6.854;2024-02-26T10:07:37;3.20;;;1.60;;
8694;SDS011;65580;49.446;6.854;2024-02-26T10:11:40;1.70;;;1.30;;
8694;SDS011;65580;49.446;6.854;2024-02-26T10:15:45;1.55;;;1.13;;
8694;SDS011;65580;49.446;6.854;2024-02-26T10:19:49;2.83;;;1.40;;
8694;SDS011;65580;49.446;6.854;2024-02-26T10:23:56;1.40;;;1.30;;
8694;SDS011;65580;49.446;6.854;2024-02-26T10:27:59;2.47;;;1.10;;
8694;SDS011;65580;49.446;6.854;2024-02-26T10:32:04;2.28;;;1.25;;
8694;SDS011;65580;49.446;6.854;2024-02-26T10:40:19;1.35;;;1.10;;
8694;SDS011;65580;49.446;6.854;2024-02-26T10:48:25;1.58;;;1.00;;
8694;SDS011;65580;49.446;6.854;2024-02-26T10:57:06;1.63;;;1.13;;
8694;SDS011;65580;49.446;6.854;2024-02-26T11:06:31;2.15;;;1.08;;
8694;SDS011;65580;49.446;6.854;2024-02-26T11:10:53;1.85;;;1.13;;
8694;SDS011;65580;49.446;6.854;2024-02-26T11:20:22;3.10;;;1.20;;
8694;SDS011;65580;49.446;6.854;2024-02-26T11:24:25;1.92;;;1.13;;
8694;SDS011;65580;49.446;6.854;2024-02-26T11:28:33;2.92;;;1.10;;
8694;SDS011;65580;49.446;6.854;2024-02-26T11:32:37;1.45;;;0.90;;
8694;SDS011;65580;49.446;6.854;2024-02-26T11:36:51;2.00;;;1.20;;
8694;SDS011;65580;49.446;6.854;2024-02-26T11:40:54;2.13;;;1.10;;
8694;SDS011;65580;49.446;6.854;2024-02-26T11:44:59;1.20;;;0.93;;
8694;SDS011;65580;49.446;6.854;2024-02-26T11:54:37;1.42;;;1.00;;
8694;SDS011;65580;49.446;6.854;2024-02-26T11:58:53;1.33;;;1.02;;
8694;SDS011;65580;49.446;6.854;2024-02-26T12:13:05;1.98;;;0.80;;
8694;SDS011;65580;49.446;6.854;2024-02-26T12:17:40;0.80;;;0.70;;
8694;SDS011;65580;49.446;6.854;2024-02-26T12:22:00;1.70;;;0.88;;
8694;SDS011;65580;49.446;6.854;2024-02-26T12:31:31;1.25;;;0.80;;
8694;SDS011;65580;49.446;6.854;2024-02-26T12:35:37;3.10;;;1.00;;
8694;SDS011;65580;49.446;6.854;2024-02-26T12:59:20;1.38;;;0.90;;
8694;SDS011;65580;49.446;6.854;2024-02-26T13:07:50;1.05;;;0.90;;
8694;SDS011;65580;49.446;6.854;2024-02-26T13:16:35;0.90;;;0.70;;
8694;SDS011;65580;49.446;6.854;2024-02-26T13:20:38;0.70;;;0.70;;
8694;SDS011;65580;49.446;6.854;2024-02-26T13:24:43;1.42;;;0.60;;
8694;SDS011;65580;49.446;6.854;2024-02-26T13:28:46;1.33;;;0.70;;
8694;SDS011;65580;49.446;6.854;2024-02-26T13:33:06;0.70;;;0.70;;
8694;SDS011;65580;49.446;6.854;2024-02-26T13:37:22;1.92;;;0.63;;
8694;SDS011;65580;49.446;6.854;2024-02-26T13:41:39;0.93;;;0.60;;
8694;SDS011;65580;49.446;6.854;2024-02-26T13:46:08;1.83;;;0.75;;
8694;SDS011;65580;49.446;6.854;2024-02-26T13:50:12;0.73;;;0.70;;
8694;SDS011;65580;49.446;6.854;2024-02-26T13:58:41;0.93;;;0.73;;
8694;SDS011;65580;49.446;6.854;2024-02-26T14:11:33;1.77;;;1.10;;
8694;SDS011;65580;49.446;6.854;2024-02-26T14:15:37;1.38;;;0.73;;
8694;SDS011;65580;49.446;6.854;2024-02-26T14:24:13;1.85;;;0.80;;
8694;SDS011;65580;49.446;6.854;2024-02-26T14:28:28;0.70;;;0.60;;
8694;SDS011;65580;49.446;6.854;2024-02-26T14:32:47;0.47;;;0.47;;
8694;SDS011;65580;49.446;6.854;2024-02-26T14:36:50;1.25;;;1.08;;
8694;SDS011;65580;49.446;6.854;2024-02-26T14:45:19;2.70;;;0.70;;
8694;SDS011;65580;49.446;6.854;2024-02-26T14:49:23;0.75;;;0.70;;
8694;SDS011;65580;49.446;6.854;2024-02-26T14:53:26;1.52;;;0.75;;
8694;SDS011;65580;49.446;6.854;2024-02-26T14:57:29;6.05;;;2.33;;
8694;SDS011;65580;49.446;6.854;2024-02-26T15:01:32;1.48;;;1.02;;
8694;SDS011;65580;49.446;6.854;2024-02-26T15:05:47;1.40;;;0.68;;
8694;SDS011;65580;49.446;6.854;2024-02-26T15:09:50;1.25;;;0.85;;
8694;SDS011;65580;49.446;6.854;2024-02-26T15:18:28;1.77;;;0.93;;
8694;SDS011;65580;49.446;6.854;2024-02-26T15:22:35;2.88;;;0.73;;
8694;SDS011;65580;49.446;6.854;2024-02-26T15:26:39;2.70;;;0.77;;
8694;SDS011;65580;49.446;6.854;2024-02-26T15:30:42;1.15;;;0.70;;
8694;SDS011;65580;49.446;6.854;2024-02-26T15:34:56;3.08;;;0.93;;
8694;SDS011;65580;49.446;6.854;2024-02-26T15:39:01;2.50;;;1.00;;
8694;SDS011;65580;49.446;6.854;2024-02-26T15:43:13;1.10;;;0.70;;
8694;SDS011;65580;49.446;6.854;2024-02-26T15:47:16;1.17;;;0.95;;
8694;SDS011;65580;49.446;6.854;2024-02-26T15:51:22;1.27;;;0.90;;
8694;SDS011;65580;49.446;6.854;2024-02-26T15:55:27;1.10;;;1.00;;
8694;SDS011;65580;49.446;6.854;2024-02-26T15:59:47;1.38;;;0.90;;
8694;SDS011;65580;49.446;6.854;2024-02-26T16:03:51;1.50;;;1.30;;
8694;SDS011;65580;49.446;6.854;2024-02-26T16:07:56;1.27;;;1.02;;
8694;SDS011;65580;49.446;6.854;2024-02-26T16:12:04;3.30;;;1.50;;
8694;SDS011;65580;49.446;6.854;2024-02-26T16:16:13;1.92;;;1.60;;
8694;SDS011;65580;49.446;6.854;2024-02-26T16:20:19;2.45;;;1.58;;
8694;SDS011;65580;49.446;6.854;2024-02-26T16:24:22;2.97;;;1.60;;
8694;SDS011;65580;49.446;6.854;2024-02-26T16:28:26;3.85;;;1.92;;
8694;SDS011;65580;49.446;6.854;2024-02-26T16:32:29;3.40;;;2.00;;
8694;SDS011;65580;49.446;6.854;2024-02-26T16:40:55;4.88;;;2.20;;
8694;SDS011;65580;49.446;6.854;2024-02-26T16:44:59;6.05;;;2.90;;
8694;SDS011;65580;49.446;6.854;2024-02-26T16:49:05;5.43;;;2.90;;
8694;SDS011;65580;49.446;6.854;2024-02-26T16:53:09;6.55;;;3.10;;
8694;SDS011;65580;49.446;6.854;2024-02-26T16:57:24;7.38;;;3.72;;
8694;SDS011;65580;49.446;6.854;2024-02-26T17:01:29;8.70;;;3.55;;
8694;SDS011;65580;49.446;6.854;2024-02-26T17:05:31;7.78;;;4.20;;
8694;SDS011;65580;49.446;6.854;2024-02-26T17:09:34;9.20;;;4.35;;
8694;SDS011;65580;49.446;6.854;2024-02-26T17:13:37;11.88;;;4.70;;
8694;SDS011;65580;49.446;6.854;2024-02-26T17:17:42;6.72;;;3.97;;
8694;SDS011;65580;49.446;6.854;2024-02-26T17:21:52;12.13;;;5.18;;
8694;SDS011;65580;49.446;6.854;2024-02-26T17:30:02;9.85;;;6.05;;
8694;SDS011;65580;49.446;6.854;2024-02-26T17:48:21;11.00;;;6.18;;
8694;SDS011;65580;49.446;6.854;2024-02-26T17:52:27;9.88;;;5.72;;
8694;SDS011;65580;49.446;6.854;2024-02-26T17:56:35;10.98;;;6.25;;
8694;SDS011;65580;49.446;6.854;2024-02-26T18:00:54;10.90;;;6.32;;
8694;SDS011;65580;49.446;6.854;2024-02-26T18:04:57;11.30;;;7.18;;
8694;SDS011;65580;49.446;6.854;2024-02-26T18:09:02;10.35;;;6.25;;
8694;SDS011;65580;49.446;6.854;2024-02-26T18:13:04;9.70;;;6.35;;
8694;SDS011;65580;49.446;6.854;2024-02-26T18:28:08;14.32;;;7.65;;
8694;SDS011;65580;49.446;6.854;2024-02-26T18:32:11;11.23;;;6.22;;
8694;SDS011;65580;49.446;6.854;2024-02-26T18:36:14;10.18;;;6.43;;
8694;SDS011;65580;49.446;6.854;2024-02-26T18:44:53;11.43;;;7.07;;
8694;SDS011;65580;49.446;6.854;2024-02-26T18:49:08;11.05;;;6.45;;
8694;SDS011;65580;49.446;6.854;2024-02-26T18:53:11;11.85;;;7.38;;
8694;SDS011;65580;49.446;6.854;2024-02-26T18:57:14;12.57;;;7.22;;
8694;SDS011;65580;49.446;6.854;2024-02-26T19:01:18;12.50;;;7.15;;
8694;SDS011;65580;49.446;6.854;2024-02-26T19:05:21;11.07;;;7.15;;
8694;SDS011;65580;49.446;6.854;2024-02-26T19:09:27;12.75;;;7.13;;
8694;SDS011;65580;49.446;6.854;2024-02-26T19:13:30;11.82;;;6.47;;
8694;SDS011;65580;49.446;6.854;2024-02-26T19:17:34;11.77;;;6.40;;
8694;SDS011;65580;49.446;6.854;2024-02-26T19:21:37;9.73;;;5.80;;
8694;SDS011;65580;49.446;6.854;2024-02-26T19:25:41;10.73;;;6.05;;
8694;SDS011;65580;49.446;6.854;2024-02-26T19:34:02;10.15;;;5.97;;
8694;SDS011;65580;49.446;6.854;2024-02-26T19:42:18;10.00;;;5.22;;
8694;SDS011;65580;49.446;6.854;2024-02-26T19:46:21;8.65;;;5.57;;
8694;SDS011;65580;49.446;6.854;2024-02-26T19:50:25;7.60;;;4.20;;
8694;SDS011;65580;49.446;6.854;2024-02-26T19:54:29;6.80;;;4.00;;
8694;SDS011;65580;49.446;6.854;2024-02-26T19:58:32;8.30;;;4.43;;
8694;SDS011;65580;49.446;6.854;2024-02-26T20:02:34;7.10;;;4.07;;
8694;SDS011;65580;49.446;6.854;2024-02-26T20:06:40;8.65;;;4.60;;
8694;SDS011;65580;49.446;6.854;2024-02-26T20:10:44;6.97;;;4.20;;
8694;SDS011;65580;49.446;6.854;2024-02-26T20:14:51;7.85;;;4.35;;
8694;SDS011;65580;49.446;6.854;2024-02-26T20:18:54;6.85;;;4.53;;
8694;SDS011;65580;49.446;6.854;2024-02-26T20:22:58;7.93;;;3.92;;
8694;SDS011;65580;49.446;6.854;2024-02-26T20:27:01;6.60;;;3.33;;
8694;SDS011;65580;49.446;6.854;2024-02-26T20:36:27;8.48;;;3.83;;
8694;SDS011;65580;49.446;6.854;2024-02-26T20:40:55;7.47;;;3.33;;
8694;SDS011;65580;49.446;6.854;2024-02-26T20:45:21;11.00;;;3.75;;
8694;SDS011;65580;49.446;6.854;2024-02-26T20:49:49;8.18;;;3.80;;
8694;SDS011;65580;49.446;6.854;2024-02-26T20:54:17;8.52;;;3.70;;
8694;SDS011;65580;49.446;6.854;2024-02-26T20:58:22;7.70;;;4.40;;
8694;SDS011;65580;49.446;6.854;2024-02-26T21:02:24;6.55;;;3.72;;
8694;SDS011;65580;49.446;6.854;2024-02-26T21:06:36;7.53;;;3.70;;
8694;SDS011;65580;49.446;6.854;2024-02-26T21:10:39;10.23;;;4.43;;
8694;SDS011;65580;49.446;6.854;2024-02-26T21:14:45;8.60;;;4.53;;
8694;SDS011;65580;49.446;6.854;2024-02-26T21:18:47;8.30;;;4.40;;
8694;SDS011;65580;49.446;6.854;2024-02-26T21:22:51;10.80;;;4.10;;
8694;SDS011;65580;49.446;6.854;2024-02-26T21:26:54;7.75;;;4.43;;
8694;SDS011;65580;49.446;6.854;2024-02-26T21:30:58;8.02;;;4.20;;
8694;SDS011;65580;49.446;6.854;2024-02-26T21:35:01;9.98;;;4.22;;
8694;SDS011;65580;49.446;6.854;2024-02-26T21:39:04;8.65;;;4.40;;
8694;SDS011;65580;49.446;6.854;2024-02-26T21:48:25;6.97;;;3.90;;
8694;SDS011;65580;49.446;6.854;2024-02-26T21:52:29;9.23;;;4.18;;
8694;SDS011;65580;49.446;6.854;2024-02-26T21:56:31;10.43;;;4.63;;
8694;SDS011;65580;49.446;6.854;2024-02-26T22:00:34;7.65;;;3.65;;
8694;SDS011;65580;49.446;6.854;2024-02-26T22:04:45;9.27;;;4.30;;
8694;SDS011;65580;49.446;6.854;2024-02-26T22:08:48;10.18;;;4.03;;
8694;SDS011;65580;49.446;6.854;2024-02-26T22:12:51;5.43;;;3.17;;
8694;SDS011;65580;49.446;6.854;2024-02-26T22:16:53;7.22;;;3.83;;
8694;SDS011;65580;49.446;6.854;2024-02-26T22:20:59;11.32;;;4.95;;
8694;SDS011;65580;49.446;6.854;2024-02-26T22:25:05;9.57;;;4.38;;
8694;SDS011;65580;49.446;6.854;2024-02-26T22:29:08;7.63;;;4.00;;
8694;SDS011;65580;49.446;6.854;2024-02-26T22:33:11;8.27;;;3.75;;
8694;SDS011;65580;49.446;6.854;2024-02-26T22:37:16;10.32;;;3.67;;
8694;SDS011;65580;49.446;6.854;2024-02-26T22:41:19;5.28;;;3.20;;
8694;SDS011;65580;49.446;6.854;2024-02-26T22:45:21;5.70;;;3.00;;
8694;SDS011;65580;49.446;6.854;2024-02-26T22:49:25;6.65;;;3.05;;
8694;SDS011;65580;49.446;6.854;2024-02-26T22:57:34;5.40;;;2.65;;
8694;SDS011;65580;49.446;6.854;2024-02-26T23:01:37;10.27;;;3.60;;
8694;SDS011;65580;49.446;6.854;2024-02-26T23:05:40;8.48;;;2.45;;
8694;SDS011;65580;49.446;6.854;2024-02-26T23:09:44;6.25;;;2.58;;
8694;SDS011;65580;49.446;6.854;2024-02-26T23:18:08;6.75;;;2.45;;
8694;SDS011;65580;49.446;6.854;2024-02-26T23:22:12;7.78;;;2.70;;
8694;SDS011;65580;49.446;6.854;2024-02-26T23:26:16;7.03;;;2.63;;
8694;SDS011;65580;49.446;6.854;2024-02-26T23:30:19;4.35;;;2.50;;
8694;SDS011;65580;49.446;6.854;2024-02-26T23:34:22;7.25;;;3.50;;
8694;SDS011;65580;49.446;6.854;2024-02-26T23:38:25;9.52;;;5.25;;
8694;SDS011;65580;49.446;6.854;2024-02-26T23:42:29;11.23;;;5.43;;
8694;SDS011;65580;49.446;6.854;2024-02-26T23:46:32;10.27;;;5.05;;
8694;SDS011;65580;49.446;6.854;2024-02-26T23:50:37;16.90;;;6.20;;
8694;SDS011;65580;49.446;6.854;2024-02-26T23:54:40;10.80;;;5.25;;
8694;SDS011;65580;49.446;6.854;2024-02-26T23:58:45;12.77;;;5.45;;
